createdAt,value
2023-10-10T00:00:24.911Z,101359.78
2023-10-10T00:02:52.349Z,101364.78
2023-10-10T00:05:19.601Z,101372.78
2023-10-10T00:07:46.042Z,101357.66
2023-10-10T00:10:14.526Z,101363.41
2023-10-10T00:12:41.018Z,101354.03
2023-10-10T00:15:12.455Z,101354.03
2023-10-10T00:17:39.031Z,101359.03
2023-10-10T00:20:23.369Z,101353.28
2023-10-10T00:22:51.028Z,101364.06
2023-10-10T00:25:19.830Z,101361.19
2023-10-10T00:27:47.982Z,101356.16
2023-10-10T00:30:14.394Z,101361.19
2023-10-10T00:32:43.709Z,101351.78
2023-10-10T00:35:13.265Z,101351.78
2023-10-10T00:37:39.714Z,101355.44
2023-10-10T00:40:09.838Z,101346.81
2023-10-10T00:42:42.200Z,101351.78
2023-10-10T00:45:15.790Z,101345.28
2023-10-10T00:47:44.628Z,101353.19
2023-10-10T00:50:17.143Z,101343.94
2023-10-10T00:52:44.741Z,101353.19
2023-10-10T00:55:11.121Z,101346.03
2023-10-10T00:57:38.101Z,101348.16
2023-10-10T01:00:15.960Z,101350.31
2023-10-10T01:02:43.878Z,101351.69
2023-10-10T01:05:13.786Z,101350.31
2023-10-10T01:07:40.621Z,101351.03
2023-10-10T01:10:13.787Z,101345.28
2023-10-10T01:12:40.904Z,101340.94
2023-10-10T01:15:17.852Z,101328.72
2023-10-10T01:17:44.807Z,101333.69
2023-10-10T01:20:35.078Z,101331.59
2023-10-10T01:23:02.067Z,101328.72
2023-10-10T01:25:34.468Z,101325.84
2023-10-10T01:28:03.583Z,101324.31
2023-10-10T01:30:58.342Z,101325.06
2023-10-10T01:33:30.205Z,101319.97
2023-10-10T01:35:57.026Z,101324.31
2023-10-10T01:42:19.426Z,101314.97
2023-10-10T01:44:45.906Z,101327.81
2023-10-10T01:47:23.869Z,101319.97
2023-10-10T01:49:50.264Z,101324.31
2023-10-10T01:54:47.405Z,101321.34
2023-10-10T01:57:23.124Z,101319.97
2023-10-10T01:59:50.052Z,101310.56
2023-10-10T02:02:19.588Z,101315.59
2023-10-10T02:04:46.667Z,101312.72
2023-10-10T02:07:23.675Z,101301.97
2023-10-10T02:10:00.222Z,101315.59
2023-10-10T02:12:27.515Z,101311.22
2023-10-10T02:14:55.479Z,101317.72
2023-10-10T02:17:23.954Z,101316.97
2023-10-10T02:20:09.586Z,101313.38
2023-10-10T02:22:48.359Z,101315.59
2023-10-10T02:25:27.860Z,101309.09
2023-10-10T02:27:57.550Z,101316.97
2023-10-10T02:30:36.626Z,101311.22
2023-10-10T02:33:09.595Z,101316.97
2023-10-10T02:35:47.758Z,101319.13
2023-10-10T02:38:14.234Z,101306.09
2023-10-10T02:40:44.348Z,101324.09
2023-10-10T02:43:33.363Z,101317.59
2023-10-10T02:45:59.950Z,101321.22
2023-10-10T02:48:35.535Z,101312.59
2023-10-10T02:51:04.753Z,101312.59
2023-10-10T02:53:33.497Z,101306.09
2023-10-10T02:56:02.916Z,101309.59
2023-10-10T02:58:39.063Z,101311.84
2023-10-10T03:01:11.058Z,101306.84
2023-10-10T03:03:41.910Z,101293.88
2023-10-10T03:06:08.999Z,101293.88
2023-10-10T03:08:36.050Z,101286.63
2023-10-10T03:11:03.520Z,101286.63
2023-10-10T03:13:36.908Z,101293.13
2023-10-10T03:16:19.714Z,101286.63
2023-10-10T03:19:18.180Z,101305.38
2023-10-10T03:21:52.517Z,101300.97
2023-10-10T03:24:42.161Z,101305.38
2023-10-10T03:27:20.671Z,101305.25
2023-10-10T03:29:51.277Z,101308.88
2023-10-10T03:32:26.139Z,101315.34
2023-10-10T03:35:05.634Z,101321.88
2023-10-10T03:37:42.048Z,101321.09
2023-10-10T03:40:27.495Z,101333.38
2023-10-10T03:43:30.660Z,101334.72
2023-10-10T03:46:15.756Z,101332.59
2023-10-10T03:49:01.122Z,101323.97
2023-10-10T03:51:46.229Z,101319.63
2023-10-10T03:54:31.200Z,101318.09
2023-10-10T03:57:16.293Z,101313.88
2023-10-10T04:00:01.382Z,101325.38
2023-10-10T04:02:46.487Z,101325.38
2023-10-10T04:05:31.793Z,101323.84
2023-10-10T04:08:21.175Z,101323.84
2023-10-10T04:11:06.228Z,101316.63
2023-10-10T04:13:51.172Z,101323.13
2023-10-10T04:16:36.162Z,101310.88
2023-10-10T04:19:21.477Z,101316.63
2023-10-10T04:22:06.344Z,101311.63
2023-10-10T04:24:51.258Z,101310.88
2023-10-10T04:27:36.153Z,101318.09
2023-10-10T04:30:21.049Z,101316.63
2023-10-10T04:33:05.898Z,101317.38
2023-10-10T04:35:50.804Z,101327.38
2023-10-10T04:38:35.714Z,101325.25
2023-10-10T04:41:20.676Z,101326.00
2023-10-10T04:44:07.408Z,101325.38
2023-10-10T04:46:52.369Z,101323.66
2023-10-10T04:49:37.367Z,101326.63
2023-10-10T04:52:22.249Z,101331.63
2023-10-10T04:55:07.177Z,101331.00
2023-10-10T04:58:05.917Z,101326.72
2023-10-10T05:00:51.150Z,101328.88
2023-10-10T05:03:36.092Z,101328.13
2023-10-10T05:06:21.330Z,101333.88
2023-10-10T05:09:06.274Z,101330.25
2023-10-10T05:11:51.064Z,101333.88
2023-10-10T05:14:36.061Z,101326.72
2023-10-10T05:17:21.340Z,101335.34
2023-10-10T05:20:06.259Z,101333.13
2023-10-10T05:22:51.149Z,101339.63
2023-10-10T05:25:26.296Z,101345.38
2023-10-10T05:27:59.897Z,101346.84
2023-10-10T05:30:26.625Z,101343.22
2023-10-10T05:33:05.154Z,101346.84
2023-10-10T05:35:32.015Z,101346.84
2023-10-10T05:38:01.554Z,101339.63
2023-10-10T05:40:28.369Z,101339.63
2023-10-10T05:42:54.759Z,101340.34
2023-10-10T05:45:21.774Z,101345.38
2023-10-10T05:47:48.871Z,101339.63
2023-10-10T05:50:15.339Z,101348.97
2023-10-10T05:52:41.770Z,101345.38
2023-10-10T05:55:09.102Z,101341.00
2023-10-10T05:57:37.609Z,101343.88
2023-10-10T06:00:11.888Z,101342.50
2023-10-10T06:02:43.364Z,101346.75
2023-10-10T06:05:13.600Z,101361.88
2023-10-10T06:07:46.163Z,101348.25
2023-10-10T06:10:18.800Z,101353.88
2023-10-10T06:12:46.579Z,101361.13
2023-10-10T06:15:19.030Z,101366.88
2023-10-10T06:17:45.892Z,101371.84
2023-10-10T06:20:16.576Z,101372.63
2023-10-10T06:22:46.100Z,101374.72
2023-10-10T06:25:12.743Z,101368.22
2023-10-10T06:27:42.022Z,101375.50
2023-10-10T06:30:18.817Z,101378.38
2023-10-10T06:32:45.465Z,101378.38
2023-10-10T06:35:20.799Z,101377.59
2023-10-10T06:37:52.739Z,101373.34
2023-10-10T06:40:26.101Z,101387.59
2023-10-10T06:42:56.780Z,101386.97
2023-10-10T06:45:24.092Z,101395.59
2023-10-10T06:47:52.474Z,101389.09
2023-10-10T06:50:25.312Z,101399.84
2023-10-10T06:52:54.687Z,101395.59
2023-10-10T06:55:24.099Z,101399.09
2023-10-10T06:57:59.189Z,101399.09
2023-10-10T07:00:29.680Z,101394.09
2023-10-10T07:02:56.910Z,101396.22
2023-10-10T07:05:27.658Z,101395.50
2023-10-10T07:07:59.471Z,101404.09
2023-10-10T07:10:35.442Z,101400.38
2023-10-10T07:13:02.038Z,101406.84
2023-10-10T07:15:34.749Z,101408.84
2023-10-10T07:18:15.186Z,101416.69
2023-10-10T07:21:03.708Z,101416.69
2023-10-10T07:23:38.385Z,101415.72
2023-10-10T07:26:06.575Z,101417.09
2023-10-10T07:28:38.181Z,101423.72
2023-10-10T07:31:08.266Z,101414.97
2023-10-10T07:33:41.633Z,101414.97
2023-10-10T07:36:14.040Z,101425.84
2023-10-10T07:38:40.857Z,101421.38
2023-10-10T07:41:07.315Z,101419.13
2023-10-10T07:43:35.755Z,101422.09
2023-10-10T07:46:16.034Z,101425.59
2023-10-10T07:48:47.348Z,101422.22
2023-10-10T07:51:17.781Z,101423.59
2023-10-10T07:53:44.482Z,101426.09
2023-10-10T07:56:10.945Z,101430.84
2023-10-10T07:58:57.899Z,101431.06
2023-10-10T08:01:24.638Z,101435.31
2023-10-10T08:03:51.174Z,101441.06
2023-10-10T08:06:24.277Z,101432.44
2023-10-10T08:09:09.667Z,101430.97
2023-10-10T08:11:39.064Z,101430.31
2023-10-10T08:14:08.242Z,101433.84
2023-10-10T08:16:35.286Z,101432.34
2023-10-10T08:19:12.071Z,101433.84
2023-10-10T08:21:39.558Z,101435.81
2023-10-10T08:24:08.050Z,101430.19
2023-10-10T08:26:40.383Z,101439.59
2023-10-10T08:29:10.273Z,101427.44
2023-10-10T08:31:39.755Z,101430.84
2023-10-10T08:34:06.186Z,101433.59
2023-10-10T08:36:35.569Z,101436.59
2023-10-10T08:39:17.064Z,101431.59
2023-10-10T08:41:43.573Z,101438.25
2023-10-10T08:44:10.621Z,101442.91
2023-10-10T08:46:47.392Z,101436.41
2023-10-10T08:49:14.221Z,101437.19
2023-10-10T08:51:40.761Z,101428.94
2023-10-10T08:54:14.153Z,101432.41
2023-10-10T08:56:41.069Z,101435.63
2023-10-10T08:59:08.400Z,101436.09
2023-10-10T09:01:36.919Z,101430.72
2023-10-10T09:04:07.026Z,101436.59
2023-10-10T09:06:34.561Z,101440.31
2023-10-10T09:09:01.445Z,101433.94
2023-10-10T09:11:27.921Z,101432.44
2023-10-10T09:13:54.335Z,101427.59
2023-10-10T09:16:42.241Z,101429.84
2023-10-10T09:19:12.226Z,101437.06
2023-10-10T09:21:51.582Z,101439.94
2023-10-10T09:24:30.382Z,101442.81
2023-10-10T09:27:01.165Z,101446.34
2023-10-10T09:29:35.345Z,101437.06
2023-10-10T09:32:02.441Z,101435.72
2023-10-10T09:34:37.005Z,101433.59
2023-10-10T09:37:08.346Z,101435.72
2023-10-10T09:39:38.163Z,101449.44
2023-10-10T09:42:08.670Z,101441.59
2023-10-10T09:44:54.813Z,101442.31
2023-10-10T09:47:41.630Z,101440.69
2023-10-10T09:50:23.060Z,101435.84
2023-10-10T09:52:59.511Z,101437.34
2023-10-10T09:55:26.366Z,101436.47
2023-10-10T09:58:02.025Z,101444.47
2023-10-10T10:00:38.477Z,101452.31
2023-10-10T10:03:24.329Z,101449.53
2023-10-10T10:05:59.411Z,101456.91
2023-10-10T10:08:38.299Z,101460.81
2023-10-10T10:11:13.084Z,101453.09
2023-10-10T10:13:39.653Z,101447.47
2023-10-10T10:16:16.497Z,101454.59
2023-10-10T10:18:46.000Z,101461.84
2023-10-10T10:21:19.637Z,101457.56
2023-10-10T10:23:47.925Z,101455.13
2023-10-10T10:26:22.763Z,101456.22
2023-10-10T10:28:58.128Z,101460.34
2023-10-10T10:31:31.214Z,101451.03
2023-10-10T10:34:32.419Z,101448.03
2023-10-10T10:37:14.078Z,101453.03
2023-10-10T10:39:47.267Z,101452.19
2023-10-10T10:42:13.884Z,101453.53
2023-10-10T10:44:48.380Z,101453.44
2023-10-10T10:47:36.041Z,101458.44
2023-10-10T10:50:17.901Z,101461.97
2023-10-10T10:52:48.402Z,101456.84
2023-10-10T10:55:22.016Z,101441.72
2023-10-10T10:57:50.938Z,101440.09
2023-10-10T11:00:42.155Z,101437.44
2023-10-10T11:03:12.598Z,101447.69
2023-10-10T11:05:40.346Z,101447.91
2023-10-10T11:08:12.688Z,101440.69
2023-10-10T11:10:39.930Z,101441.31
2023-10-10T11:13:09.072Z,101434.06
2023-10-10T11:15:39.396Z,101439.16
2023-10-10T11:18:09.260Z,101437.81
2023-10-10T11:20:57.780Z,101439.94
2023-10-10T11:23:33.502Z,101428.44
2023-10-10T11:26:01.506Z,101438.44
2023-10-10T11:28:48.524Z,101436.28
2023-10-10T11:31:17.578Z,101439.16
2023-10-10T11:34:10.850Z,101439.06
2023-10-10T11:36:40.764Z,101433.31
2023-10-10T11:39:25.926Z,101430.44
2023-10-10T11:41:52.336Z,101421.81
2023-10-10T11:44:19.223Z,101421.81
2023-10-10T11:46:50.293Z,101428.31
2023-10-10T11:49:16.949Z,101418.94
2023-10-10T11:51:43.422Z,101419.69
2023-10-10T11:54:09.810Z,101422.56
2023-10-10T11:56:36.254Z,101423.19
2023-10-10T11:59:10.541Z,101418.94
2023-10-10T12:01:55.357Z,101418.19
2023-10-10T12:04:42.010Z,101412.44
2023-10-10T12:07:08.402Z,101420.31
2023-10-10T12:09:34.856Z,101410.22
2023-10-10T12:12:04.181Z,101418.06
2023-10-10T12:14:31.821Z,101410.22
2023-10-10T12:16:59.207Z,101396.47
2023-10-10T12:19:30.193Z,101402.94
2023-10-10T12:21:56.898Z,101399.34
2023-10-10T12:24:23.858Z,101402.94
2023-10-10T12:26:55.242Z,101393.72
2023-10-10T12:29:25.597Z,101387.84
2023-10-10T12:31:56.818Z,101395.84
2023-10-10T12:34:24.441Z,101392.19
2023-10-10T12:36:51.679Z,101397.22
2023-10-10T12:39:20.799Z,101389.97
2023-10-10T12:41:47.615Z,101390.72
2023-10-10T12:44:14.373Z,101385.72
2023-10-10T12:46:43.565Z,101384.22
2023-10-10T12:49:12.775Z,101378.47
2023-10-10T12:51:40.149Z,101372.72
2023-10-10T12:54:11.209Z,101369.84
2023-10-10T12:56:50.117Z,101367.72
2023-10-10T12:59:26.563Z,101369.97
2023-10-10T13:01:57.304Z,101367.09
2023-10-10T13:04:30.117Z,101377.19
2023-10-10T13:07:03.368Z,101377.19
2023-10-10T13:09:30.387Z,101375.72
2023-10-10T13:11:57.855Z,101377.19
2023-10-10T13:14:26.410Z,101367.09
2023-10-10T13:16:52.825Z,101364.22
2023-10-10T13:19:22.056Z,101364.22
2023-10-10T13:21:49.249Z,101358.47
2023-10-10T13:24:16.547Z,101348.34
2023-10-10T13:26:46.698Z,101344.72
2023-10-10T13:31:42.487Z,101357.69
2023-10-10T13:34:08.967Z,101354.09
2023-10-10T13:36:35.361Z,101361.34
2023-10-10T13:39:06.814Z,101363.44
2023-10-10T13:41:37.265Z,101362.72
2023-10-10T13:44:04.607Z,101364.22
2023-10-10T13:46:34.532Z,101364.84
2023-10-10T13:49:01.002Z,101367.09
2023-10-10T13:51:30.636Z,101362.72
2023-10-10T13:53:58.174Z,101364.22
2023-10-10T13:56:25.096Z,101362.09
2023-10-10T13:58:53.402Z,101362.72
2023-10-10T14:01:30.925Z,101361.34
2023-10-10T14:04:02.357Z,101356.97
2023-10-10T14:06:35.327Z,101351.22
2023-10-10T14:09:01.961Z,101346.97
2023-10-10T14:11:28.462Z,101345.47
2023-10-10T14:13:55.184Z,101352.59
2023-10-10T14:16:22.257Z,101341.22
2023-10-10T14:18:50.927Z,101339.72
2023-10-10T14:21:17.827Z,101343.97
2023-10-10T14:23:46.519Z,101333.97
2023-10-10T14:26:28.151Z,101346.97
2023-10-10T14:28:55.823Z,101348.34
2023-10-10T14:31:25.086Z,101344.72
2023-10-10T14:33:51.770Z,101351.94
2023-10-10T14:36:18.314Z,101341.22
2023-10-10T14:38:47.845Z,101338.97
2023-10-10T14:41:23.379Z,101339.72
2023-10-10T14:43:50.435Z,101341.22
2023-10-10T14:46:23.046Z,101333.97
2023-10-10T14:49:02.386Z,101328.22
2023-10-10T14:51:35.000Z,101332.47
2023-10-10T14:54:08.303Z,101327.78
2023-10-10T14:56:36.823Z,101326.72
2023-10-10T14:59:05.237Z,101326.72
2023-10-10T15:01:37.730Z,101326.72
2023-10-10T15:04:04.390Z,101335.34
2023-10-10T15:06:31.097Z,101321.72
2023-10-10T15:08:57.583Z,101313.09
2023-10-10T15:11:24.411Z,101301.59
2023-10-10T15:13:51.285Z,101302.97
2023-10-10T15:16:17.709Z,101292.22
2023-10-10T15:18:44.182Z,101285.72
2023-10-10T15:21:11.267Z,101276.47
2023-10-10T15:23:38.312Z,101274.97
2023-10-10T15:26:06.340Z,101280.72
2023-10-10T15:28:32.786Z,101274.97
2023-10-10T15:30:59.272Z,101269.22
2023-10-10T15:33:26.533Z,101266.34
2023-10-10T15:35:55.794Z,101265.69
2023-10-10T15:38:24.317Z,101261.34
2023-10-10T15:40:53.339Z,101262.09
2023-10-10T15:43:32.271Z,101262.09
2023-10-10T15:45:59.451Z,101262.09
2023-10-10T15:48:27.057Z,101269.22
2023-10-10T15:50:54.034Z,101269.97
2023-10-10T15:53:21.599Z,101256.97
2023-10-10T15:56:08.268Z,101253.47
2023-10-10T15:58:37.961Z,101260.72
2023-10-10T16:01:15.283Z,101260.59
2023-10-10T16:03:48.650Z,101260.59
2023-10-10T16:06:16.004Z,101256.97
2023-10-10T16:08:42.444Z,101260.59
2023-10-10T16:11:08.971Z,101262.72
2023-10-10T16:13:37.055Z,101264.84
2023-10-10T16:16:06.805Z,101262.63
2023-10-10T16:18:36.141Z,101252.63
2023-10-10T16:21:05.880Z,101260.50
2023-10-10T16:23:33.385Z,101260.50
2023-10-10T16:26:00.161Z,101267.72
2023-10-10T16:28:27.273Z,101256.88
2023-10-10T16:30:54.730Z,101257.63
2023-10-10T16:33:27.307Z,101261.13
2023-10-10T16:35:53.910Z,101259.75
2023-10-10T16:38:23.436Z,101254.75
2023-10-10T16:40:52.884Z,101259.75
2023-10-10T16:43:19.439Z,101253.25
2023-10-10T16:45:50.458Z,101270.50
2023-10-10T16:48:17.090Z,101273.34
2023-10-10T16:50:43.681Z,101261.88
2023-10-10T16:53:12.747Z,101253.25
2023-10-10T16:55:42.309Z,101242.50
2023-10-10T16:58:15.551Z,101230.25
2023-10-10T17:00:43.307Z,101224.50
2023-10-10T17:03:13.278Z,101219.50
2023-10-10T17:05:41.373Z,101206.50
2023-10-10T17:08:09.701Z,101205.78
2023-10-10T17:10:37.786Z,101213.00
2023-10-10T17:13:05.879Z,101214.41
2023-10-10T17:15:35.429Z,101203.41
2023-10-10T17:18:01.949Z,101204.59
2023-10-10T17:20:29.053Z,101200.34
2023-10-10T17:22:55.597Z,101196.94
2023-10-10T17:25:22.045Z,101198.53
2023-10-10T17:27:53.015Z,101195.00
2023-10-10T17:30:19.947Z,101195.22
2023-10-10T17:32:47.277Z,101195.75
2023-10-10T17:35:13.962Z,101193.31
2023-10-10T17:37:40.369Z,101178.31
2023-10-10T17:40:07.058Z,101176.69
2023-10-10T17:42:33.591Z,101189.03
2023-10-10T17:45:00.097Z,101181.47
2023-10-10T17:47:29.847Z,101181.34
2023-10-10T17:49:59.144Z,101177.63
2023-10-10T17:52:25.830Z,101171.44
2023-10-10T17:54:52.267Z,101168.00
2023-10-10T17:57:22.923Z,101167.25
2023-10-10T17:59:53.549Z,101166.63
2023-10-10T18:02:23.997Z,101162.25
2023-10-10T18:04:51.170Z,101163.75
2023-10-10T18:07:22.638Z,101151.56
2023-10-10T18:09:55.230Z,101160.25
2023-10-10T18:12:22.275Z,101149.03
2023-10-10T18:14:51.346Z,101143.97
2023-10-10T18:17:18.221Z,101145.91
2023-10-10T18:19:44.786Z,101134.97
2023-10-10T18:22:11.260Z,101151.19
2023-10-10T18:24:38.417Z,101149.94
2023-10-10T18:27:05.044Z,101155.25
2023-10-10T18:29:31.973Z,101154.50
2023-10-10T18:31:59.336Z,101146.75
2023-10-10T18:34:25.846Z,101153.97
2023-10-10T18:36:52.642Z,101153.25
2023-10-10T18:39:19.299Z,101151.66
2023-10-10T18:41:47.216Z,101149.44
2023-10-10T18:44:16.800Z,101152.94
2023-10-10T18:46:44.637Z,101148.47
2023-10-10T18:49:11.323Z,101142.28
2023-10-10T18:51:37.897Z,101145.63
2023-10-10T18:54:09.279Z,101136.34
2023-10-10T18:56:36.181Z,101131.13
2023-10-10T18:59:02.744Z,101123.34
2023-10-10T19:01:29.198Z,101126.34
2023-10-10T19:03:55.683Z,101129.84
2023-10-10T19:06:22.247Z,101116.09
2023-10-10T19:08:48.829Z,101113.31
2023-10-10T19:11:16.040Z,101108.00
2023-10-10T19:13:50.154Z,101110.31
2023-10-10T19:16:17.195Z,101110.31
2023-10-10T19:18:45.985Z,101097.66
2023-10-10T19:21:13.964Z,101097.03
2023-10-10T19:23:41.117Z,101096.28
2023-10-10T19:26:09.691Z,101103.63
2023-10-10T19:28:36.565Z,101092.44
2023-10-10T19:31:05.771Z,101098.59
2023-10-10T19:33:32.433Z,101097.16
2023-10-10T19:35:58.995Z,101105.16
2023-10-10T19:38:27.137Z,101104.97
2023-10-10T19:40:55.073Z,101104.00
2023-10-10T19:43:23.263Z,101105.09
2023-10-10T19:45:49.658Z,101102.84
2023-10-10T19:48:19.034Z,101102.84
2023-10-10T19:50:46.385Z,101108.50
2023-10-10T19:53:13.831Z,101099.69
2023-10-10T19:55:41.177Z,101105.44
2023-10-10T19:58:10.588Z,101105.44
2023-10-10T20:00:40.277Z,101092.44
2023-10-10T20:03:09.507Z,101092.44
2023-10-10T20:05:37.554Z,101089.56
2023-10-10T20:08:06.396Z,101088.19
2023-10-10T20:10:32.799Z,101082.34
2023-10-10T20:12:59.925Z,101081.59
2023-10-10T20:15:29.287Z,101073.59
2023-10-10T20:17:58.732Z,101085.00
2023-10-10T20:20:31.275Z,101082.03
2023-10-10T20:23:01.111Z,101086.28
2023-10-10T20:25:28.253Z,101084.78
2023-10-10T20:27:54.725Z,101082.56
2023-10-10T20:30:21.472Z,101081.81
2023-10-10T20:32:48.266Z,101070.19
2023-10-10T20:35:17.720Z,101077.34
2023-10-10T20:37:44.043Z,101083.09
2023-10-10T20:40:11.396Z,101082.34
2023-10-10T20:42:37.837Z,101080.13
2023-10-10T20:45:04.309Z,101074.38
2023-10-10T20:47:30.754Z,101072.13
2023-10-10T20:49:57.198Z,101077.13
2023-10-10T20:52:23.568Z,101068.63
2023-10-10T20:54:49.987Z,101073.53
2023-10-10T20:57:16.474Z,101068.41
2023-10-10T20:59:43.723Z,101056.16
2023-10-10T21:02:12.700Z,101056.91
2023-10-10T21:04:39.146Z,101044.56
2023-10-10T21:07:05.626Z,101038.06
2023-10-10T21:09:35.054Z,101038.81
2023-10-10T21:12:05.891Z,101035.09
2023-10-10T21:14:34.547Z,101045.19
2023-10-10T21:17:01.067Z,101033.69
2023-10-10T21:19:27.463Z,101032.22
2023-10-10T21:21:54.303Z,101024.22
2023-10-10T21:24:20.739Z,101016.28
2023-10-10T21:26:47.176Z,101013.41
2023-10-10T21:29:13.575Z,101020.72
2023-10-10T21:31:42.437Z,101017.63
2023-10-10T21:34:09.031Z,101016.28
2023-10-10T21:36:35.524Z,101017.00
2023-10-10T21:39:01.961Z,101016.28
2023-10-10T21:41:29.344Z,101019.03
2023-10-10T21:43:56.443Z,101014.03
2023-10-10T21:46:22.857Z,101006.16
2023-10-10T21:48:49.582Z,101007.53
2023-10-10T21:51:17.997Z,101001.78
2023-10-10T21:53:44.533Z,101001.78
2023-10-10T21:56:10.924Z,101000.28
2023-10-10T21:58:40.534Z,100999.56
2023-10-10T22:01:10.834Z,100995.31
2023-10-10T22:03:43.019Z,100993.06
2023-10-10T22:06:09.530Z,100994.53
2023-10-10T22:08:37.510Z,101000.28
2023-10-10T22:11:04.039Z,100994.53
2023-10-10T22:13:30.479Z,100992.31
2023-10-10T22:15:57.133Z,100988.69
2023-10-10T22:18:23.648Z,100985.81
2023-10-10T22:20:50.196Z,100985.81
2023-10-10T22:23:16.615Z,100969.97
2023-10-10T22:25:43.024Z,100977.13
2023-10-10T22:28:10.933Z,100976.34
2023-10-10T22:30:38.262Z,100969.88
2023-10-10T22:33:05.325Z,100964.84
2023-10-10T22:35:33.755Z,100971.38
2023-10-10T22:38:00.895Z,100971.38
2023-10-10T22:40:27.784Z,100970.59
2023-10-10T22:42:54.648Z,100967.00
2023-10-10T22:45:21.148Z,100967.72
2023-10-10T22:47:48.663Z,100968.38
2023-10-10T22:50:20.369Z,100962.63
2023-10-10T22:52:47.166Z,100962.63
2023-10-10T22:55:14.091Z,100965.50
2023-10-10T22:57:43.545Z,100962.63
2023-10-10T23:00:14.413Z,100965.50
2023-10-10T23:02:41.083Z,100968.38
2023-10-10T23:05:09.270Z,100961.13
2023-10-10T23:07:37.336Z,100952.41
2023-10-10T23:10:04.775Z,100961.13
2023-10-10T23:12:32.723Z,100952.41
2023-10-10T23:14:59.195Z,100951.03
2023-10-10T23:17:25.600Z,100948.91
2023-10-10T23:19:51.990Z,100958.16
2023-10-10T23:22:18.601Z,100951.69
2023-10-10T23:24:45.065Z,100950.94
2023-10-10T23:27:11.507Z,100950.19
2023-10-10T23:29:37.962Z,100940.91
2023-10-10T23:32:04.389Z,100945.19
2023-10-10T23:34:30.802Z,100939.44
2023-10-10T23:36:57.615Z,100935.16
2023-10-10T23:39:25.352Z,100942.31
2023-10-10T23:41:51.894Z,100939.44
2023-10-10T23:44:18.307Z,100938.69
2023-10-10T23:46:47.516Z,100927.22
2023-10-10T23:49:14.275Z,100932.19
2023-10-10T23:51:40.687Z,100940.81
2023-10-10T23:54:07.131Z,100933.69
2023-10-10T23:56:36.720Z,100942.31
2023-10-10T23:59:03.249Z,100936.47
